Time;durP1;ratioP1;P1;durP2;ratioP2;P2;SDS_P1;SDS_P2;PMS_P1;PMS_P2;Temp;Humidity;BMP_temperature;BMP_pressure;BME280_temperature;BME280_humidity;BME280_pressure;Samples;Min_cycle;Max_cycle;Signal;HPM_P1;HPM_P2
2022/12/19 03:00:34;;;;;;;50.17;36.17;;;-0.60;99.90;;;;;;5989589;23;20412;31
2022/12/19 03:03:11;;;;;;;53.23;35.53;;;-0.50;99.90;;;;;;4879664;29;20267;-78
2022/12/19 03:05:44;;;;;;;47.67;33.73;;;-0.50;99.90;;;;;;4878657;29;20467;-78
2022/12/19 03:08:21;;;;;;;49.73;34.53;;;-0.40;99.90;;;;;;4885753;29;20454;-78
2022/12/19 03:10:58;;;;;;;48.73;33.33;;;-0.40;99.90;;;;;;4879537;29;20475;-78
2022/12/19 03:13:29;;;;;;;47.23;35.13;;;-0.40;99.90;;;;;;4879025;29;20455;-78
2022/12/19 03:15:59;;;;;;;49.70;33.77;;;-0.40;99.90;;;;;;4880608;29;20867;-77
2022/12/19 03:18:26;;;;;;;45.80;34.20;;;-0.30;99.90;;;;;;4883985;29;20450;-78
2022/12/19 03:21:02;;;;;;;47.03;34.43;;;-0.30;99.90;;;;;;4880584;29;20538;-77
2022/12/19 03:23:29;;;;;;;52.33;36.97;;;-0.30;99.90;;;;;;4873160;29;20470;-78
2022/12/19 03:26:01;;;;;;;49.60;34.53;;;-0.30;99.90;;;;;;4877243;29;21021;-78
2022/12/19 03:28:34;;;;;;;51.57;35.53;;;-0.30;99.90;;;;;;4875644;29;20517;-78
2022/12/19 03:31:04;;;;;;;49.87;36.90;;;-0.30;99.90;;;;;;4880953;29;20482;-77
2022/12/19 03:33:33;;;;;;;49.97;35.43;;;-0.40;99.90;;;;;;4880656;29;20510;-78
2022/12/19 03:36:04;;;;;;;49.57;35.07;;;-0.30;99.90;;;;;;4889196;29;20435;-78
2022/12/19 03:38:33;;;;;;;46.73;34.47;;;-0.30;99.90;;;;;;4880890;29;20869;-78
2022/12/19 03:41:02;;;;;;;46.83;35.80;;;-0.30;99.90;;;;;;4883901;29;20508;-80
2022/12/19 03:43:28;;;;;;;51.00;36.33;;;-0.20;99.90;;;;;;4878254;29;20458;-77
2022/12/19 03:45:57;;;;;;;49.57;36.77;;;-0.20;99.90;;;;;;4879839;29;20437;-77
2022/12/19 03:48:29;;;;;;;50.47;36.27;;;-0.20;99.90;;;;;;4886308;29;20444;-78
2022/12/19 03:51:05;;;;;;;44.50;34.13;;;-0.10;99.90;;;;;;4882706;29;20460;-79
2022/12/19 03:53:41;;;;;;;45.03;34.90;;;-0.10;99.90;;;;;;4862265;29;20453;-79
2022/12/19 03:56:16;;;;;;;47.63;34.07;;;-0.10;99.90;;;;;;4883892;29;20451;-78
2022/12/19 03:58:48;;;;;;;53.23;34.87;;;-0.10;99.90;;;;;;4873889;29;20447;-78
2022/12/19 04:01:15;;;;;;;53.87;35.67;;;0.00;99.90;;;;;;4871557;29;20520;-81
2022/12/19 04:03:43;;;;;;;51.60;35.07;;;0.00;99.90;;;;;;4880570;29;21235;-78
2022/12/19 04:06:13;;;;;;;50.63;34.37;;;0.00;99.90;;;;;;4886292;29;20456;-79
2022/12/19 04:08:41;;;;;;;43.30;33.00;;;0.00;99.90;;;;;;4879808;29;20908;-78
2022/12/19 04:11:13;;;;;;;45.90;33.67;;;0.10;99.90;;;;;;4875502;29;20478;-79
2022/12/19 04:13:43;;;;;;;46.40;34.73;;;0.00;99.90;;;;;;4873214;29;21042;-79
2022/12/19 04:16:16;;;;;;;46.30;33.47;;;0.10;99.90;;;;;;4882667;29;20504;-78
2022/12/19 04:18:47;;;;;;;44.60;33.03;;;0.10;99.90;;;;;;4886075;29;20450;-80
2022/12/19 04:21:19;;;;;;;44.57;32.00;;;0.10;99.90;;;;;;4892275;29;21015;-78
2022/12/19 04:23:52;;;;;;;42.73;32.27;;;0.20;99.90;;;;;;4889056;29;20442;-81
2022/12/19 04:26:21;;;;;;;45.47;33.23;;;0.20;99.90;;;;;;4882564;29;20452;-83
2022/12/19 04:28:51;;;;;;;43.07;32.47;;;0.30;99.90;;;;;;4884472;29;20495;-82
2022/12/19 04:31:20;;;;;;;47.77;34.03;;;0.30;99.90;;;;;;4883135;29;20477;-84
2022/12/19 04:33:48;;;;;;;43.40;31.97;;;0.40;99.90;;;;;;4879726;29;20447;-79
2022/12/19 04:36:15;;;;;;;48.83;34.43;;;0.40;99.90;;;;;;4879228;29;20451;-80
2022/12/19 04:38:42;;;;;;;49.27;34.20;;;0.40;99.90;;;;;;4886786;29;20491;-81
2022/12/19 04:41:09;;;;;;;44.43;33.37;;;0.40;99.90;;;;;;4873227;29;20569;-80
2022/12/19 04:43:36;;;;;;;41.07;32.77;;;0.50;99.90;;;;;;4866952;29;20513;-78
2022/12/19 04:46:03;;;;;;;40.97;33.30;;;0.50;99.90;;;;;;4866948;29;20527;-79
2022/12/19 04:48:30;;;;;;;49.80;35.33;;;0.50;99.90;;;;;;4862659;29;20465;-80
2022/12/19 04:50:58;;;;;;;42.00;32.37;;;0.60;99.90;;;;;;4864381;29;20477;-78
2022/12/19 04:53:25;;;;;;;45.93;34.07;;;0.60;99.90;;;;;;4863022;29;20455;-78
2022/12/19 04:56:00;;;;;;;42.63;33.97;;;0.70;99.90;;;;;;4864290;29;20452;-79
2022/12/19 04:58:27;;;;;;;40.93;32.97;;;0.70;99.90;;;;;;4863960;29;20451;-81
2022/12/19 05:00:53;;;;;;;42.97;34.27;;;0.70;99.90;;;;;;4861763;29;20500;-81
2022/12/19 05:03:21;;;;;;;46.10;34.20;;;0.70;99.90;;;;;;4866728;29;20512;-82
2022/12/19 05:05:48;;;;;;;47.30;34.97;;;0.70;99.90;;;;;;4870554;29;20457;-80
2022/12/19 05:08:16;;;;;;;48.93;34.23;;;0.70;99.90;;;;;;4862750;29;20462;-81
2022/12/19 05:10:42;;;;;;;44.27;35.47;;;0.70;99.90;;;;;;4861636;29;20895;-81
2022/12/19 05:13:09;;;;;;;46.17;35.80;;;0.70;99.90;;;;;;4862789;29;20457;-81
2022/12/19 05:15:36;;;;;;;42.57;34.37;;;0.70;99.90;;;;;;4863178;29;20449;-80
2022/12/19 05:18:04;;;;;;;47.20;34.83;;;0.70;99.90;;;;;;4862774;29;20457;-80
2022/12/19 05:20:30;;;;;;;47.70;36.20;;;0.70;99.90;;;;;;4865132;29;20509;-80
2022/12/19 05:22:57;;;;;;;49.60;37.90;;;0.70;99.90;;;;;;4863238;29;20460;-80
2022/12/19 05:25:25;;;;;;;49.53;36.70;;;0.70;99.90;;;;;;4864007;29;20449;-79
2022/12/19 05:27:52;;;;;;;50.37;36.03;;;0.70;99.90;;;;;;4862711;29;20453;-77
2022/12/19 05:30:22;;;;;;;48.07;37.67;;;0.70;99.90;;;;;;4864760;29;20455;-77
2022/12/19 05:32:48;;;;;;;48.17;37.47;;;0.80;99.90;;;;;;4867918;29;20468;-78
2022/12/19 05:35:15;;;;;;;47.03;36.47;;;0.80;99.90;;;;;;4864245;29;20455;-78
2022/12/19 05:37:42;;;;;;;47.80;36.40;;;0.80;99.90;;;;;;4871554;29;20452;-81
2022/12/19 05:40:10;;;;;;;43.50;35.07;;;0.80;99.90;;;;;;4871563;29;20512;-80
2022/12/19 05:42:38;;;;;;;41.37;33.17;;;0.90;99.90;;;;;;4869771;29;20992;-81
2022/12/19 05:45:06;;;;;;;44.60;34.40;;;0.90;99.90;;;;;;4867107;29;20464;-81
2022/12/19 05:47:33;;;;;;;36.53;32.23;;;1.00;99.90;;;;;;4867250;29;20448;-78
2022/12/19 05:50:00;;;;;;;44.80;35.57;;;1.00;99.90;;;;;;4861533;29;20513;-81
2022/12/19 05:52:26;;;;;;;41.10;32.90;;;1.00;99.90;;;;;;4866559;29;20477;-82
2022/12/19 05:54:53;;;;;;;47.73;34.07;;;0.90;99.90;;;;;;4863196;29;20465;-82
2022/12/19 05:57:20;;;;;;;44.33;32.27;;;0.90;99.90;;;;;;4864099;29;20517;-81
2022/12/19 05:59:48;;;;;;;41.57;33.43;;;0.90;99.90;;;;;;4864910;29;20454;-81
2022/12/19 06:02:15;;;;;;;36.73;31.87;;;0.90;99.90;;;;;;4863583;29;20518;-81
2022/12/19 06:04:42;;;;;;;43.13;34.13;;;0.90;99.90;;;;;;4864026;29;20477;-77
2022/12/19 06:07:09;;;;;;;38.23;32.07;;;1.00;99.90;;;;;;4863831;29;20444;-79
2022/12/19 06:09:36;;;;;;;41.83;32.97;;;1.00;99.90;;;;;;4861294;29;20973;-79
2022/12/19 06:12:03;;;;;;;41.10;33.40;;;1.00;99.90;;;;;;4864495;29;20485;-78
2022/12/19 06:14:29;;;;;;;47.37;36.30;;;1.00;99.90;;;;;;4862094;29;20473;-78
2022/12/19 06:16:58;;;;;;;47.03;35.63;;;1.00;99.90;;;;;;4863788;29;20453;-79
2022/12/19 06:19:25;;;;;;;46.83;36.87;;;1.00;99.90;;;;;;4875804;29;21049;-79
2022/12/19 06:21:52;;;;;;;49.47;36.00;;;1.00;99.90;;;;;;4869930;29;20489;-80
2022/12/19 06:24:20;;;;;;;49.10;34.73;;;1.10;99.90;;;;;;4878382;29;20442;-79
2022/12/19 06:26:47;;;;;;;45.83;35.50;;;1.10;99.90;;;;;;4867868;29;20507;-80
2022/12/19 06:29:13;;;;;;;44.00;35.57;;;1.10;99.90;;;;;;4876512;29;20979;-80
2022/12/19 06:31:40;;;;;;;41.70;34.40;;;1.10;99.90;;;;;;4870491;29;20483;-79
2022/12/19 06:34:09;;;;;;;42.67;35.00;;;1.20;99.90;;;;;;4872822;29;20468;-80
2022/12/19 06:36:37;;;;;;;43.77;33.93;;;1.20;99.90;;;;;;4873252;29;20488;-79
2022/12/19 06:39:05;;;;;;;42.17;33.27;;;1.20;99.90;;;;;;4869491;29;20458;-80
2022/12/19 06:44:17;;;;;;;38.73;32.47;;;1.20;99.90;;;;;;4867071;29;20452;-81
2022/12/19 06:46:44;;;;;;;47.60;34.07;;;1.20;99.90;;;;;;4878783;29;20510;-81
2022/12/19 06:49:13;;;;;;;44.07;33.23;;;1.20;99.90;;;;;;4884214;29;20450;-79
2022/12/19 06:51:40;;;;;;;46.10;33.07;;;1.30;99.90;;;;;;4881041;29;20481;-77
2022/12/19 06:54:07;;;;;;;39.53;31.83;;;1.20;99.90;;;;;;4880674;29;20540;-81
2022/12/19 06:56:35;;;;;;;44.97;33.90;;;1.30;99.90;;;;;;4880046;29;20475;-78
2022/12/19 06:59:02;;;;;;;41.10;32.37;;;1.30;99.90;;;;;;4875905;29;20461;-78
2022/12/19 07:01:39;;;;;;;42.90;32.47;;;1.30;99.90;;;;;;4891236;29;20485;-78
2022/12/19 07:04:07;;;;;;;42.20;33.07;;;1.30;99.90;;;;;;4876405;29;20966;-79
2022/12/19 07:06:35;;;;;;;37.83;31.20;;;1.30;99.90;;;;;;4890896;29;20460;-78
2022/12/19 07:09:02;;;;;;;39.00;30.67;;;1.40;99.90;;;;;;4887317;29;20502;-79
2022/12/19 07:11:29;;;;;;;42.03;33.33;;;1.40;99.90;;;;;;4888365;29;20484;-77
2022/12/19 07:13:56;;;;;;;38.57;32.50;;;1.40;99.90;;;;;;4897229;29;20447;-79
2022/12/19 07:16:24;;;;;;;42.73;33.70;;;1.40;99.90;;;;;;4899848;29;20518;-79
2022/12/19 07:18:51;;;;;;;40.77;31.77;;;1.40;99.90;;;;;;4888737;29;20462;-79
2022/12/19 07:21:18;;;;;;;40.63;33.10;;;1.40;99.90;;;;;;4881324;29;20520;-79
2022/12/19 07:23:47;;;;;;;42.80;31.53;;;1.40;99.90;;;;;;4881896;29;20545;-79
2022/12/19 07:26:13;;;;;;;41.73;31.93;;;1.40;99.90;;;;;;4885161;29;20462;-80
2022/12/19 07:28:43;;;;;;;39.97;32.47;;;1.40;99.90;;;;;;4887636;29;20540;-78
2022/12/19 07:31:10;;;;;;;41.87;32.20;;;1.40;99.90;;;;;;4877843;29;20480;-82
2022/12/19 07:33:37;;;;;;;42.67;32.23;;;1.50;99.90;;;;;;4883437;29;20458;-80
2022/12/19 07:36:04;;;;;;;39.70;32.20;;;1.50;99.90;;;;;;4883063;29;20866;-79
2022/12/19 07:38:31;;;;;;;39.57;31.13;;;1.50;99.90;;;;;;4890884;29;20679;-80
2022/12/19 07:41:02;;;;;;;39.07;31.63;;;1.50;99.90;;;;;;4884754;29;20533;-79
2022/12/19 07:43:28;;;;;;;36.83;30.57;;;1.50;99.90;;;;;;4882540;29;21006;-79
2022/12/19 07:45:56;;;;;;;36.83;30.53;;;1.60;99.90;;;;;;4884623;29;20853;-81
2022/12/19 07:48:23;;;;;;;40.97;32.30;;;1.60;99.90;;;;;;4880799;29;20964;-79
2022/12/19 07:50:50;;;;;;;38.10;32.17;;;1.70;99.90;;;;;;4881384;29;20910;-81
2022/12/19 07:53:17;;;;;;;36.83;31.17;;;1.70;99.90;;;;;;4885368;29;20457;-81
2022/12/19 07:55:44;;;;;;;37.40;30.93;;;1.70;99.90;;;;;;4877403;29;20439;-80
2022/12/19 07:58:12;;;;;;;38.03;30.50;;;1.70;99.90;;;;;;4877048;29;20554;-80
2022/12/19 08:00:40;;;;;;;35.13;30.57;;;1.80;99.90;;;;;;4873835;29;20522;-81
2022/12/19 08:03:06;;;;;;;40.67;31.83;;;1.70;99.90;;;;;;4873132;29;20226;-81
2022/12/19 08:05:33;;;;;;;38.23;29.07;;;1.70;99.90;;;;;;4871295;29;20468;-77
2022/12/19 08:08:00;;;;;;;35.13;29.60;;;1.80;99.90;;;;;;4892345;29;20519;-80
2022/12/19 08:10:27;;;;;;;42.30;34.13;;;1.80;99.90;;;;;;4889806;29;20446;-79
2022/12/19 08:12:54;;;;;;;38.07;32.43;;;1.80;99.90;;;;;;4886470;29;20472;-79
2022/12/19 08:15:22;;;;;;;40.30;32.20;;;1.80;99.90;;;;;;4882626;29;20198;-80
2022/12/19 08:17:49;;;;;;;42.27;32.73;;;1.80;99.90;;;;;;4883246;29;20206;-79
2022/12/19 08:20:16;;;;;;;37.50;31.17;;;1.90;99.90;;;;;;4885642;29;20205;-79
2022/12/19 08:22:43;;;;;;;39.07;31.07;;;1.90;99.90;;;;;;4882901;29;20493;-79
2022/12/19 08:25:10;;;;;;;35.67;30.40;;;2.00;99.90;;;;;;4880980;29;20437;-79
2022/12/19 08:27:37;;;;;;;34.80;29.40;;;2.00;99.90;;;;;;4883433;29;20202;-79
2022/12/19 08:30:05;;;;;;;36.77;30.27;;;2.10;99.90;;;;;;4887580;29;20440;-79
2022/12/19 08:32:33;;;;;;;37.97;29.93;;;2.10;99.90;;;;;;4883681;29;20216;-77
2022/12/19 08:35:00;;;;;;;33.23;29.10;;;2.10;99.90;;;;;;4883789;29;20528;-82
2022/12/19 08:37:26;;;;;;;35.90;28.63;;;2.10;99.90;;;;;;4894307;29;20462;-81
2022/12/19 08:39:53;;;;;;;32.23;28.63;;;2.20;99.90;;;;;;4885209;29;20197;-80
2022/12/19 08:42:20;;;;;;;33.70;28.93;;;2.20;99.90;;;;;;4880896;29;20225;-78
2022/12/19 08:44:47;;;;;;;33.67;28.80;;;2.30;99.90;;;;;;4884436;29;20452;-78
2022/12/19 08:47:14;;;;;;;33.87;29.23;;;2.30;99.90;;;;;;4868407;29;20663;-79
2022/12/19 08:49:42;;;;;;;35.40;28.73;;;2.30;99.90;;;;;;4867011;29;20457;-79
2022/12/19 08:52:09;;;;;;;34.93;30.27;;;2.40;99.90;;;;;;4870340;29;20222;-79
2022/12/19 08:54:36;;;;;;;38.73;30.20;;;2.50;99.90;;;;;;4870124;29;20204;-79
2022/12/19 08:57:03;;;;;;;33.17;29.57;;;2.50;99.90;;;;;;4869438;29;20735;-77
2022/12/19 08:59:30;;;;;;;36.10;29.30;;;2.60;99.90;;;;;;4870063;29;20957;-78
2022/12/19 09:01:57;;;;;;;37.47;30.33;;;2.60;99.90;;;;;;4867536;29;20367;-79
2022/12/19 09:04:24;;;;;;;35.20;29.27;;;2.70;99.90;;;;;;4881078;29;20205;-78
2022/12/19 09:06:52;;;;;;;37.97;30.63;;;2.70;99.90;;;;;;4873924;29;20229;-78
2022/12/19 09:09:19;;;;;;;34.67;30.30;;;2.80;99.90;;;;;;4884369;29;20289;-79
2022/12/19 09:11:46;;;;;;;38.53;30.67;;;2.80;99.90;;;;;;4883256;29;20228;-78
2022/12/19 09:14:13;;;;;;;34.77;30.97;;;2.80;99.90;;;;;;4882720;29;20694;-78
2022/12/19 09:16:39;;;;;;;40.03;31.83;;;2.80;99.90;;;;;;4887241;29;20441;-79
2022/12/19 09:19:06;;;;;;;34.07;30.17;;;2.70;99.90;;;;;;4884416;29;20260;-78
2022/12/19 09:21:33;;;;;;;38.70;31.53;;;2.80;99.90;;;;;;4880744;29;20221;-78
2022/12/19 09:24:02;;;;;;;39.47;31.20;;;2.80;99.90;;;;;;4879466;29;20229;-79
2022/12/19 09:26:29;;;;;;;36.20;30.83;;;2.90;99.90;;;;;;4878646;29;20637;-79
2022/12/19 09:28:56;;;;;;;36.37;31.13;;;3.00;99.90;;;;;;4879181;29;20206;-78
2022/12/19 09:31:24;;;;;;;37.17;30.60;;;3.10;99.90;;;;;;4872635;29;20224;-78
2022/12/19 09:33:52;;;;;;;42.63;33.07;;;3.10;99.90;;;;;;4872476;29;20250;-79
2022/12/19 09:36:21;;;;;;;40.27;32.60;;;3.10;99.90;;;;;;4866223;29;20302;-78
2022/12/19 09:38:48;;;;;;;35.03;30.73;;;3.20;99.90;;;;;;4862881;29;20202;-79
2022/12/19 09:41:36;;;;;;;39.90;30.90;;;3.20;99.90;;;;;;4890756;29;20272;-79
2022/12/19 09:44:14;;;;;;;35.83;30.90;;;3.30;99.90;;;;;;4879228;29;20220;-80
2022/12/19 09:46:49;;;;;;;35.60;29.47;;;3.40;99.90;;;;;;4881733;29;20209;-82
2022/12/19 09:49:20;;;;;;;32.53;28.77;;;3.50;99.90;;;;;;4879863;29;20206;-79
2022/12/19 09:51:58;;;;;;;36.30;30.17;;;3.60;99.90;;;;;;4888921;29;20228;-77
2022/12/19 09:54:32;;;;;;;30.37;26.77;;;3.60;99.90;;;;;;4885034;29;20203;-79
2022/12/19 09:57:04;;;;;;;31.93;27.10;;;3.70;99.90;;;;;;4882851;29;20212;-78
2022/12/19 09:59:36;;;;;;;29.60;26.40;;;3.70;99.90;;;;;;4884650;29;20203;-79
2022/12/19 10:02:17;;;;;;;30.57;27.30;;;3.80;99.90;;;;;;4883900;29;20233;-79
2022/12/19 10:04:48;;;;;;;31.67;26.90;;;3.80;99.90;;;;;;4884979;29;20208;-79
2022/12/19 10:07:17;;;;;;;34.80;27.57;;;3.70;99.90;;;;;;4873250;29;22885;-80
2022/12/19 10:09:44;;;;;;;36.20;29.00;;;3.70;99.90;;;;;;4876634;29;20221;-80
2022/12/19 10:12:27;;;;;;;37.50;29.70;;;3.70;99.90;;;;;;4877628;29;20660;-80
2022/12/19 10:15:02;;;;;;;32.17;28.70;;;3.70;99.90;;;;;;4889089;29;20227;-80
2022/12/19 10:17:36;;;;;;;32.67;29.10;;;3.70;99.90;;;;;;4881423;29;20208;-79
2022/12/19 10:20:21;;;;;;;34.30;29.40;;;3.70;99.90;;;;;;4886695;29;20642;-80
2022/12/19 10:23:02;;;;;;;36.43;28.80;;;3.80;99.90;;;;;;4877717;29;20221;-80
2022/12/19 10:25:42;;;;;;;35.88;32.10;;;3.90;99.90;;;;;;4878692;29;20501;-80
2022/12/19 10:28:41;;;;;;;35.87;29.73;;;3.90;99.90;;;;;;4883900;29;20201;-80
2022/12/19 10:31:16;;;;;;;36.57;30.57;;;3.90;99.90;;;;;;4881118;29;20224;-80
2022/12/19 10:33:48;;;;;;;32.80;28.63;;;3.90;99.90;;;;;;4882800;29;20307;-81
2022/12/19 10:36:15;;;;;;;31.73;28.30;;;3.90;99.90;;;;;;4882692;29;20636;-80
2022/12/19 10:38:50;;;;;;;33.80;27.90;;;3.90;99.90;;;;;;4874374;29;20266;-80
2022/12/19 10:41:25;;;;;;;31.90;28.40;;;3.90;99.90;;;;;;4889178;29;20303;-79
2022/12/19 10:44:01;;;;;;;33.47;29.73;;;4.00;99.90;;;;;;4879253;29;20224;-82
2022/12/19 10:46:40;;;;;;;32.47;28.97;;;4.10;99.90;;;;;;4877743;29;20236;-80
2022/12/19 10:49:13;;;;;;;36.13;30.87;;;4.20;99.90;;;;;;4886130;29;20204;-80
2022/12/19 10:51:41;;;;;;;33.57;29.77;;;4.30;99.90;;;;;;4879850;29;20816;-81
2022/12/19 10:54:09;;;;;;;35.90;29.53;;;4.30;99.90;;;;;;4877601;29;20238;-80
2022/12/19 10:56:36;;;;;;;33.37;27.90;;;4.50;99.90;;;;;;4888652;29;20214;-83
2022/12/19 10:59:14;;;;;;;31.33;28.03;;;4.60;99.90;;;;;;4889621;29;20200;-80
2022/12/19 11:01:42;;;;;;;34.40;29.60;;;4.70;99.90;;;;;;4888823;29;20216;-80
2022/12/19 11:04:18;;;;;;;30.47;27.10;;;4.80;99.90;;;;;;4874134;29;20264;-79
2022/12/19 11:06:49;;;;;;;31.67;28.30;;;4.90;99.90;;;;;;4883926;29;20208;-80
2022/12/19 11:09:22;;;;;;;35.10;31.57;;;4.90;99.90;;;;;;4877713;29;20537;-80
2022/12/19 11:11:57;;;;;;;30.67;27.57;;;5.00;99.90;;;;;;4888407;29;20225;-82
2022/12/19 11:14:27;;;;;;;32.67;27.90;;;5.00;99.90;;;;;;4888536;29;20293;-80
2022/12/19 11:16:54;;;;;;;31.13;27.73;;;5.10;99.90;;;;;;4881839;29;20202;-79
2022/12/19 11:19:27;;;;;;;31.07;27.60;;;5.20;99.90;;;;;;4873725;29;20259;-81
2022/12/19 11:21:56;;;;;;;29.23;26.13;;;5.20;99.90;;;;;;4870480;29;20434;-81
2022/12/19 11:24:27;;;;;;;29.03;26.10;;;5.30;99.90;;;;;;4887041;29;20215;-80
2022/12/19 11:26:54;;;;;;;26.83;24.13;;;5.40;99.90;;;;;;4885336;29;20749;-79
2022/12/19 11:29:27;;;;;;;28.30;25.50;;;5.60;99.90;;;;;;4879503;29;20224;-81
2022/12/19 11:32:00;;;;;;;28.63;25.60;;;5.50;99.90;;;;;;4875535;29;20288;-80
2022/12/19 11:34:29;;;;;;;27.07;24.30;;;5.50;99.90;;;;;;4886451;29;20204;-80
2022/12/19 11:37:01;;;;;;;28.47;25.37;;;5.50;99.90;;;;;;4890760;29;20201;-80
2022/12/19 11:39:35;;;;;;;29.07;25.97;;;5.60;99.90;;;;;;4875563;29;20257;-83
2022/12/19 11:42:08;;;;;;;32.57;26.97;;;5.60;99.90;;;;;;4881450;29;20315;-81
2022/12/19 11:44:44;;;;;;;28.37;25.53;;;5.60;99.90;;;;;;4876212;29;20218;-80
2022/12/19 11:47:20;;;;;;;26.90;24.20;;;5.60;99.90;;;;;;4886176;29;20291;-81
2022/12/19 11:49:55;;;;;;;27.50;24.83;;;5.60;99.90;;;;;;4866205;29;20268;-79
2022/12/19 11:52:36;;;;;;;29.67;26.47;;;5.50;99.90;;;;;;4874736;29;20232;-80
2022/12/19 11:55:06;;;;;;;28.03;25.20;;;5.60;99.90;;;;;;4886630;29;20351;-79
2022/12/19 11:57:33;;;;;;;30.00;26.37;;;5.60;99.90;;;;;;4890576;29;20194;-79
2022/12/19 12:00:01;;;;;;;28.53;25.57;;;5.60;99.90;;;;;;4886624;29;20202;-78
2022/12/19 12:02:50;;;;;;;28.03;25.13;;;5.70;99.90;;;;;;4882577;29;20227;-78
2022/12/19 12:05:44;;;;;;;26.77;23.90;;;5.80;99.90;;;;;;4882087;29;20203;-78
2022/12/19 12:08:35;;;;;;;27.50;24.53;;;5.90;99.90;;;;;;4885089;29;20215;-80
2022/12/19 12:11:15;;;;;;;27.40;24.63;;;5.90;99.90;;;;;;4887044;29;20224;-78
2022/12/19 12:13:55;;;;;;;27.73;24.90;;;5.90;99.90;;;;;;4883994;29;20194;-80
2022/12/19 12:16:35;;;;;;;29.03;26.03;;;5.90;99.90;;;;;;4884972;29;20691;-79
2022/12/19 12:19:12;;;;;;;29.77;26.43;;;5.90;99.90;;;;;;4884267;29;20594;-78
2022/12/19 12:21:49;;;;;;;28.87;25.77;;;5.80;99.90;;;;;;4886596;29;20233;-78
2022/12/19 12:24:26;;;;;;;30.40;27.23;;;5.80;99.90;;;;;;4889042;29;20233;-78
2022/12/19 12:27:05;;;;;;;28.97;25.83;;;5.70;99.90;;;;;;4885274;29;20266;-78
2022/12/19 12:29:38;;;;;;;29.63;25.97;;;5.70;99.90;;;;;;4878779;29;20206;-79
2022/12/19 12:32:21;;;;;;;28.47;25.47;;;5.70;99.90;;;;;;4879325;29;20608;-78
2022/12/19 12:34:57;;;;;;;29.00;25.90;;;5.70;99.90;;;;;;4881319;29;20206;-78
2022/12/19 12:37:39;;;;;;;28.63;25.70;;;5.60;99.90;;;;;;4887038;29;20206;-80
2022/12/19 12:40:27;;;;;;;27.37;24.70;;;5.60;99.90;;;;;;4884002;29;20218;-78
2022/12/19 12:43:05;;;;;;;27.97;24.97;;;5.60;99.90;;;;;;4888887;29;20205;-78
2022/12/19 12:45:36;;;;;;;27.87;24.83;;;5.60;99.90;;;;;;4878413;29;20210;-79
2022/12/19 12:48:17;;;;;;;27.90;25.00;;;5.60;99.90;;;;;;4879871;29;20201;-78
2022/12/19 12:50:47;;;;;;;26.53;23.93;;;5.60;99.90;;;;;;4880735;29;20747;-77
2022/12/19 12:53:17;;;;;;;27.43;24.70;;;5.60;99.90;;;;;;4882811;29;20304;-78
2022/12/19 12:55:45;;;;;;;27.40;24.60;;;5.70;99.90;;;;;;4886820;29;20206;-80
2022/12/19 12:58:42;;;;;;;26.33;23.57;;;5.70;99.90;;;;;;4887949;29;20216;-79
2022/12/19 13:01:12;;;;;;;26.67;23.97;;;5.90;99.90;;;;;;4881232;29;20232;-79
2022/12/19 13:03:43;;;;;;;26.63;23.90;;;5.90;99.90;;;;;;4892575;29;20278;-79
2022/12/19 13:06:25;;;;;;;26.17;23.87;;;5.80;99.90;;;;;;4886940;29;20260;-79
2022/12/19 13:08:56;;;;;;;27.57;24.63;;;5.80;99.90;;;;;;4884145;29;20301;-79
2022/12/19 13:14:45;;;;;;;27.00;24.33;;;5.70;99.90;;;;;;4870157;29;20239;-79
2022/12/19 13:17:12;;;;;;;25.60;23.10;;;5.60;99.90;;;;;;4880447;29;20209;-79
2022/12/19 13:19:54;;;;;;;27.30;24.50;;;5.60;99.90;;;;;;4884197;29;20271;-79
2022/12/19 13:22:40;;;;;;;26.90;24.20;;;5.60;99.90;;;;;;4877384;29;20717;-77
2022/12/19 13:25:44;;;;;;;27.20;24.30;;;5.60;99.90;;;;;;4886066;29;20218;-78
2022/12/19 13:28:36;;;;;;;27.20;24.40;;;5.60;99.90;;;;;;4886114;29;20219;-79
2022/12/19 13:31:17;;;;;;;27.10;24.20;;;5.60;99.90;;;;;;4889469;29;20243;-78
2022/12/19 13:34:16;;;;;;;28.40;25.43;;;5.40;99.90;;;;;;4884889;29;20621;-78
2022/12/19 13:36:53;;;;;;;28.90;26.03;;;5.40;99.90;;;;;;4884993;29;20234;-77
2022/12/19 13:39:32;;;;;;;27.03;24.20;;;5.30;99.90;;;;;;4887450;29;20295;-79
2022/12/19 13:44:55;;;;;;;27.97;25.13;;;5.20;99.90;;;;;;4875482;29;20757;-78
2022/12/19 13:47:23;;;;;;;26.90;24.10;;;5.20;99.90;;;;;;4877969;29;20202;-81
2022/12/19 13:49:50;;;;;;;27.40;24.47;;;5.10;99.90;;;;;;4888153;29;20205;-79
2022/12/19 13:52:19;;;;;;;26.37;23.70;;;5.10;99.90;;;;;;4883113;29;20215;-79
2022/12/19 13:54:48;;;;;;;26.67;24.00;;;5.10;99.90;;;;;;4883566;29;20216;-78
2022/12/19 13:57:22;;;;;;;27.10;24.40;;;5.00;99.90;;;;;;4886613;29;20202;-80
2022/12/19 13:59:50;;;;;;;25.57;23.17;;;5.00;99.90;;;;;;4883675;29;20236;-79
2022/12/19 14:02:22;;;;;;;27.40;24.57;;;5.00;99.90;;;;;;4878422;29;20226;-80
2022/12/19 14:04:50;;;;;;;26.87;24.33;;;5.00;99.90;;;;;;4879631;29;20332;-80
2022/12/19 14:07:34;;;;;;;27.30;24.57;;;5.00;99.90;;;;;;4878677;29;20749;-83
2022/12/19 14:10:02;;;;;;;27.90;25.10;;;5.00;99.90;;;;;;4875418;29;20254;-79
2022/12/19 14:15:23;;;;;;;28.87;26.13;;;4.90;99.90;;;;;;4886764;29;20200;-78
2022/12/19 14:17:50;;;;;;;27.37;24.70;;;4.90;99.90;;;;;;4881649;29;20201;-78
2022/12/19 14:20:21;;;;;;;30.10;26.90;;;4.80;99.90;;;;;;4884763;29;20257;-79
2022/12/19 14:22:49;;;;;;;28.77;25.77;;;4.70;99.90;;;;;;4883420;29;20224;-79
2022/12/19 14:25:16;;;;;;;28.77;25.93;;;4.70;99.90;;;;;;4877015;29;20734;-78
2022/12/19 14:27:49;;;;;;;28.63;25.73;;;4.60;99.90;;;;;;4888671;29;20208;-79
2022/12/19 14:30:20;;;;;;;29.83;26.83;;;4.60;99.90;;;;;;4883544;29;20250;-79
2022/12/19 14:32:50;;;;;;;30.87;27.93;;;4.50;99.90;;;;;;4883964;29;20671;-79
2022/12/19 14:35:20;;;;;;;29.37;26.53;;;4.50;99.90;;;;;;4880822;29;20222;-77
2022/12/19 14:37:50;;;;;;;30.67;27.37;;;4.50;99.90;;;;;;4886865;29;20200;-78
2022/12/19 14:40:24;;;;;;;33.30;27.77;;;4.40;99.90;;;;;;4882227;29;20615;-77
2022/12/19 14:45:43;;;;;;;29.77;26.70;;;4.30;99.90;;;;;;4881547;29;20329;-80
2022/12/19 14:48:27;;;;;;;29.97;26.87;;;4.20;99.90;;;;;;4868543;29;20205;-77
2022/12/19 14:51:05;;;;;;;28.00;25.40;;;4.20;99.90;;;;;;4872443;29;20229;-79
2022/12/19 14:53:33;;;;;;;28.90;26.00;;;4.10;99.90;;;;;;4867730;29;20279;-77
2022/12/19 14:56:05;;;;;;;29.37;26.47;;;4.10;99.90;;;;;;4876180;29;20706;-77
2022/12/19 14:58:34;;;;;;;33.03;28.93;;;4.00;99.90;;;;;;4874067;29;20200;-78
2022/12/19 15:01:02;;;;;;;32.07;28.67;;;4.00;99.90;;;;;;4877684;29;20228;-78
2022/12/19 15:03:32;;;;;;;32.00;28.63;;;3.90;99.90;;;;;;4881361;29;20216;-78
2022/12/19 15:06:05;;;;;;;30.43;27.40;;;3.80;99.90;;;;;;4881469;29;20623;-78
2022/12/19 15:08:36;;;;;;;29.07;26.37;;;3.80;99.90;;;;;;4875214;29;20253;-77
2022/12/19 15:13:52;;;;;;;32.00;27.97;;;3.70;99.90;;;;;;4885073;29;20295;-78
2022/12/19 15:16:27;;;;;;;30.10;27.00;;;3.60;99.90;;;;;;4880644;29;20665;-77
2022/12/19 15:18:56;;;;;;;30.63;27.53;;;3.60;99.90;;;;;;4887105;29;20290;-78
2022/12/19 15:21:23;;;;;;;34.60;30.87;;;3.50;99.90;;;;;;4880022;29;20659;-82
2022/12/19 15:23:51;;;;;;;33.47;29.93;;;3.40;99.90;;;;;;4871615;29;20221;-77
2022/12/19 15:26:20;;;;;;;32.07;28.67;;;3.30;99.90;;;;;;4873125;29;20254;-77
2022/12/19 15:28:50;;;;;;;37.97;32.00;;;3.30;99.90;;;;;;4893723;29;20211;-78
2022/12/19 15:31:27;;;;;;;33.10;29.50;;;3.20;99.90;;;;;;4883228;29;20275;-78
2022/12/19 15:33:54;;;;;;;32.77;29.37;;;3.10;99.90;;;;;;4890663;29;20223;-78
2022/12/19 15:36:21;;;;;;;31.57;28.30;;;3.10;99.90;;;;;;4884511;29;20309;-77
2022/12/19 15:38:47;;;;;;;31.90;28.80;;;3.00;99.90;;;;;;4890431;29;20216;-78
2022/12/19 15:41:22;;;;;;;34.40;28.60;;;3.00;99.90;;;;;;4886270;29;20231;-77
2022/12/19 15:43:50;;;;;;;31.63;28.50;;;2.90;99.90;;;;;;4885611;29;20252;-79
2022/12/19 15:46:17;;;;;;;30.17;27.23;;;2.90;99.90;;;;;;4888928;29;20205;-77
2022/12/19 15:48:47;;;;;;;31.93;28.47;;;2.90;99.90;;;;;;4879229;29;20258;-78
2022/12/19 15:51:15;;;;;;;29.70;26.60;;;2.90;99.90;;;;;;4890843;29;20228;-78
2022/12/19 15:53:46;;;;;;;29.57;26.67;;;2.90;99.90;;;;;;4882343;29;20446;-78
2022/12/19 15:56:27;;;;;;;33.17;29.67;;;3.00;99.90;;;;;;4894120;29;20217;-79
2022/12/19 15:58:55;;;;;;;32.73;29.33;;;2.90;99.90;;;;;;4880294;29;20670;-76
2022/12/19 16:01:23;;;;;;;30.23;27.10;;;2.90;99.90;;;;;;4886709;29;20255;-77
2022/12/19 16:03:50;;;;;;;29.90;26.80;;;2.90;99.90;;;;;;4879334;29;20258;-77
2022/12/19 16:06:17;;;;;;;30.27;27.23;;;2.80;99.90;;;;;;4892061;29;20279;-77
2022/12/19 16:08:44;;;;;;;31.17;28.03;;;2.80;99.90;;;;;;4881245;29;20490;-76
2022/12/19 16:11:17;;;;;;;32.30;28.83;;;2.70;99.90;;;;;;4882020;29;20225;-77